North Charleston, South Carolina
Current Conditions -  °F | °C
As of 6:56 PM on Friday 21 Nov 2014 (Local Time) from KCHS Reporting Station
Clear Clear  
Wind Chill: 51°   Ceiling: Unl
Heat Index: 51°   Visibility: 10mi
Dew Point: 39°   Wind: 9mph
Humidity: 63%   Direction: 70°ENE
Pressure: 30.43"   Gusts: NA
Location:  32.88°N, 80.01°W
Report Text: KCHS 212356Z 07008KT 10SM CLR 11/04 A3043 RMK AO2 SLP303 T01060039 10200 20106 51016
Loading
Personal Weather Stations






























Interactive Weather Map New forecast layout! Learn more

10-Day Weather Forecast

Advertisements
Track Severe Weather on mobile